sensor_id;sensor_type;location;lat;lon;timestamp;P1;durP1;ratioP1;P2;durP2;ratioP2
23242;SDS011;11790;49.578;11.214;2023-04-24T00:04:42;3.22;;;2.00;;
23242;SDS011;11790;49.578;11.214;2023-04-24T00:09:44;3.15;;;1.85;;
23242;SDS011;11790;49.578;11.214;2023-04-24T00:14:44;3.58;;;1.95;;
23242;SDS011;11790;49.578;11.214;2023-04-24T00:19:45;5.32;;;2.00;;
23242;SDS011;11790;49.578;11.214;2023-04-24T00:24:45;4.28;;;2.40;;
23242;SDS011;11790;49.578;11.214;2023-04-24T00:29:45;2.70;;;1.90;;
23242;SDS011;11790;49.578;11.214;2023-04-24T00:34:45;6.72;;;2.08;;
23242;SDS011;11790;49.578;11.214;2023-04-24T00:39:45;4.97;;;2.63;;
23242;SDS011;11790;49.578;11.214;2023-04-24T00:44:46;2.95;;;1.98;;
23242;SDS011;11790;49.578;11.214;2023-04-24T00:49:46;4.90;;;2.22;;
23242;SDS011;11790;49.578;11.214;2023-04-24T00:54:46;4.38;;;1.90;;
23242;SDS011;11790;49.578;11.214;2023-04-24T00:59:46;4.00;;;2.13;;
23242;SDS011;11790;49.578;11.214;2023-04-24T01:04:46;4.00;;;2.10;;
23242;SDS011;11790;49.578;11.214;2023-04-24T01:09:47;4.30;;;2.10;;
23242;SDS011;11790;49.578;11.214;2023-04-24T01:14:48;3.55;;;2.40;;
23242;SDS011;11790;49.578;11.214;2023-04-24T01:19:49;5.13;;;2.20;;
23242;SDS011;11790;49.578;11.214;2023-04-24T01:24:49;5.20;;;2.22;;
23242;SDS011;11790;49.578;11.214;2023-04-24T01:29:49;2.75;;;1.90;;
23242;SDS011;11790;49.578;11.214;2023-04-24T01:34:51;6.85;;;2.03;;
23242;SDS011;11790;49.578;11.214;2023-04-24T01:39:52;3.10;;;2.13;;
23242;SDS011;11790;49.578;11.214;2023-04-24T01:44:52;6.05;;;2.28;;
23242;SDS011;11790;49.578;11.214;2023-04-24T01:49:52;3.35;;;2.50;;
23242;SDS011;11790;49.578;11.214;2023-04-24T01:54:52;6.65;;;2.35;;
23242;SDS011;11790;49.578;11.214;2023-04-24T01:59:53;2.80;;;2.20;;
23242;SDS011;11790;49.578;11.214;2023-04-24T02:04:53;3.22;;;2.33;;
23242;SDS011;11790;49.578;11.214;2023-04-24T02:09:54;3.05;;;2.30;;
23242;SDS011;11790;49.578;11.214;2023-04-24T02:14:55;2.75;;;2.03;;
23242;SDS011;11790;49.578;11.214;2023-04-24T02:19:55;4.03;;;2.22;;
23242;SDS011;11790;49.578;11.214;2023-04-24T02:24:55;4.78;;;2.30;;
23242;SDS011;11790;49.578;11.214;2023-04-24T02:29:55;2.67;;;1.90;;
23242;SDS011;11790;49.578;11.214;2023-04-24T02:34:55;3.58;;;1.98;;
23242;SDS011;11790;49.578;11.214;2023-04-24T02:39:56;3.88;;;2.08;;
23242;SDS011;11790;49.578;11.214;2023-04-24T02:44:56;3.35;;;1.83;;
23242;SDS011;11790;49.578;11.214;2023-04-24T02:49:56;3.08;;;1.83;;
23242;SDS011;11790;49.578;11.214;2023-04-24T02:54:56;4.00;;;2.25;;
23242;SDS011;11790;49.578;11.214;2023-04-24T02:59:56;3.60;;;2.17;;
23242;SDS011;11790;49.578;11.214;2023-04-24T03:04:57;3.22;;;2.33;;
23242;SDS011;11790;49.578;11.214;2023-04-24T03:09:57;3.83;;;2.47;;
23242;SDS011;11790;49.578;11.214;2023-04-24T03:14:58;3.58;;;2.30;;
23242;SDS011;11790;49.578;11.214;2023-04-24T03:19:58;3.03;;;2.10;;
23242;SDS011;11790;49.578;11.214;2023-04-24T03:24:58;2.22;;;1.80;;
23242;SDS011;11790;49.578;11.214;2023-04-24T03:29:58;3.25;;;2.17;;
23242;SDS011;11790;49.578;11.214;2023-04-24T03:34:58;3.75;;;2.05;;
23242;SDS011;11790;49.578;11.214;2023-04-24T03:39:59;5.53;;;2.30;;
23242;SDS011;11790;49.578;11.214;2023-04-24T03:44:59;6.13;;;2.23;;
23242;SDS011;11790;49.578;11.214;2023-04-24T03:49:59;4.82;;;2.15;;
23242;SDS011;11790;49.578;11.214;2023-04-24T03:55:00;11.33;;;2.50;;
23242;SDS011;11790;49.578;11.214;2023-04-24T04:00:00;2.92;;;1.90;;
23242;SDS011;11790;49.578;11.214;2023-04-24T04:05:04;2.67;;;2.20;;
23242;SDS011;11790;49.578;11.214;2023-04-24T04:10:05;3.22;;;1.80;;
23242;SDS011;11790;49.578;11.214;2023-04-24T04:15:06;5.60;;;2.15;;
23242;SDS011;11790;49.578;11.214;2023-04-24T04:20:07;2.80;;;2.28;;
23242;SDS011;11790;49.578;11.214;2023-04-24T04:25:09;3.10;;;1.80;;
23242;SDS011;11790;49.578;11.214;2023-04-24T04:30:10;3.10;;;2.33;;
23242;SDS011;11790;49.578;11.214;2023-04-24T04:35:10;5.43;;;2.10;;
23242;SDS011;11790;49.578;11.214;2023-04-24T04:40:10;3.05;;;1.88;;
23242;SDS011;11790;49.578;11.214;2023-04-24T04:45:11;3.03;;;1.90;;
23242;SDS011;11790;49.578;11.214;2023-04-24T04:50:12;5.65;;;2.22;;
23242;SDS011;11790;49.578;11.214;2023-04-24T04:55:12;3.65;;;2.08;;
23242;SDS011;11790;49.578;11.214;2023-04-24T05:00:13;2.72;;;2.00;;
23242;SDS011;11790;49.578;11.214;2023-04-24T05:05:13;4.10;;;1.92;;
23242;SDS011;11790;49.578;11.214;2023-04-24T05:10:14;3.42;;;2.00;;
23242;SDS011;11790;49.578;11.214;2023-04-24T05:15:14;3.65;;;1.80;;
23242;SDS011;11790;49.578;11.214;2023-04-24T05:20:14;3.90;;;2.08;;
23242;SDS011;11790;49.578;11.214;2023-04-24T05:25:14;2.55;;;1.98;;
23242;SDS011;11790;49.578;11.214;2023-04-24T05:30:15;5.80;;;2.47;;
23242;SDS011;11790;49.578;11.214;2023-04-24T05:35:15;4.47;;;2.30;;
23242;SDS011;11790;49.578;11.214;2023-04-24T05:40:15;3.15;;;2.15;;
23242;SDS011;11790;49.578;11.214;2023-04-24T05:45:15;5.40;;;2.60;;
23242;SDS011;11790;49.578;11.214;2023-04-24T05:50:16;7.90;;;3.72;;
23242;SDS011;11790;49.578;11.214;2023-04-24T05:55:16;3.33;;;2.38;;
23242;SDS011;11790;49.578;11.214;2023-04-24T06:00:17;4.60;;;3.10;;
23242;SDS011;11790;49.578;11.214;2023-04-24T06:05:19;10.23;;;3.00;;
23242;SDS011;11790;49.578;11.214;2023-04-24T06:10:20;3.75;;;2.47;;
23242;SDS011;11790;49.578;11.214;2023-04-24T06:15:20;4.35;;;2.08;;
23242;SDS011;11790;49.578;11.214;2023-04-24T06:20:20;7.45;;;2.80;;
23242;SDS011;11790;49.578;11.214;2023-04-24T06:25:21;5.00;;;2.75;;
23242;SDS011;11790;49.578;11.214;2023-04-24T06:30:21;5.43;;;2.25;;
23242;SDS011;11790;49.578;11.214;2023-04-24T06:35:21;4.05;;;2.22;;
23242;SDS011;11790;49.578;11.214;2023-04-24T06:40:21;3.80;;;2.03;;
23242;SDS011;11790;49.578;11.214;2023-04-24T06:45:22;3.83;;;1.98;;
23242;SDS011;11790;49.578;11.214;2023-04-24T06:50:22;1.73;;;1.30;;
23242;SDS011;11790;49.578;11.214;2023-04-24T06:55:22;2.33;;;1.20;;
23242;SDS011;11790;49.578;11.214;2023-04-24T07:00:22;4.05;;;1.30;;
23242;SDS011;11790;49.578;11.214;2023-04-24T07:05:24;2.80;;;1.10;;
23242;SDS011;11790;49.578;11.214;2023-04-24T07:10:24;1.70;;;1.17;;
23242;SDS011;11790;49.578;11.214;2023-04-24T07:15:27;2.65;;;1.40;;
23242;SDS011;11790;49.578;11.214;2023-04-24T07:20:27;5.28;;;1.20;;
23242;SDS011;11790;49.578;11.214;2023-04-24T07:25:27;2.80;;;1.20;;
23242;SDS011;11790;49.578;11.214;2023-04-24T07:30:27;1.63;;;1.25;;
23242;SDS011;11790;49.578;11.214;2023-04-24T07:35:29;2.75;;;1.25;;
23242;SDS011;11790;49.578;11.214;2023-04-24T07:40:29;2.00;;;1.30;;
23242;SDS011;11790;49.578;11.214;2023-04-24T07:45:29;4.90;;;1.38;;
23242;SDS011;11790;49.578;11.214;2023-04-24T07:50:31;1.77;;;1.50;;
23242;SDS011;11790;49.578;11.214;2023-04-24T07:55:31;1.65;;;1.40;;
23242;SDS011;11790;49.578;11.214;2023-04-24T08:00:31;2.47;;;1.27;;
23242;SDS011;11790;49.578;11.214;2023-04-24T08:05:31;3.63;;;1.48;;
23242;SDS011;11790;49.578;11.214;2023-04-24T08:10:31;3.25;;;1.38;;
23242;SDS011;11790;49.578;11.214;2023-04-24T08:15:32;2.30;;;1.45;;
23242;SDS011;11790;49.578;11.214;2023-04-24T08:20:32;2.83;;;1.58;;
23242;SDS011;11790;49.578;11.214;2023-04-24T08:25:32;1.90;;;1.40;;
23242;SDS011;11790;49.578;11.214;2023-04-24T08:30:32;2.27;;;1.87;;
23242;SDS011;11790;49.578;11.214;2023-04-24T08:35:32;2.67;;;1.80;;
23242;SDS011;11790;49.578;11.214;2023-04-24T08:40:33;4.50;;;1.60;;
23242;SDS011;11790;49.578;11.214;2023-04-24T08:45:34;5.78;;;2.25;;
23242;SDS011;11790;49.578;11.214;2023-04-24T08:50:35;2.22;;;1.73;;
23242;SDS011;11790;49.578;11.214;2023-04-24T08:55:35;3.08;;;2.08;;
23242;SDS011;11790;49.578;11.214;2023-04-24T09:00:36;4.57;;;2.10;;
23242;SDS011;11790;49.578;11.214;2023-04-24T09:05:38;3.10;;;2.28;;
23242;SDS011;11790;49.578;11.214;2023-04-24T09:10:40;4.55;;;2.45;;
23242;SDS011;11790;49.578;11.214;2023-04-24T09:15:40;2.60;;;2.10;;
23242;SDS011;11790;49.578;11.214;2023-04-24T09:20:57;4.07;;;2.00;;
23242;SDS011;11790;49.578;11.214;2023-04-24T09:31:07;3.78;;;2.40;;
23242;SDS011;11790;49.578;11.214;2023-04-24T09:36:08;4.13;;;2.70;;
23242;SDS011;11790;49.578;11.214;2023-04-24T09:41:08;3.10;;;2.20;;
23242;SDS011;11790;49.578;11.214;2023-04-24T09:46:13;2.78;;;2.17;;
23242;SDS011;11790;49.578;11.214;2023-04-24T09:51:14;6.57;;;2.38;;
23242;SDS011;11790;49.578;11.214;2023-04-24T09:56:15;3.15;;;2.30;;
23242;SDS011;11790;49.578;11.214;2023-04-24T10:01:15;3.00;;;2.15;;
23242;SDS011;11790;49.578;11.214;2023-04-24T10:06:16;3.75;;;1.90;;
23242;SDS011;11790;49.578;11.214;2023-04-24T10:11:16;3.28;;;2.33;;
23242;SDS011;11790;49.578;11.214;2023-04-24T10:16:16;3.88;;;2.10;;
23242;SDS011;11790;49.578;11.214;2023-04-24T10:21:17;3.13;;;1.90;;
23242;SDS011;11790;49.578;11.214;2023-04-24T10:26:17;2.83;;;2.00;;
23242;SDS011;11790;49.578;11.214;2023-04-24T10:31:17;2.43;;;1.77;;
23242;SDS011;11790;49.578;11.214;2023-04-24T10:36:18;3.30;;;1.80;;
23242;SDS011;11790;49.578;11.214;2023-04-24T10:41:18;2.90;;;1.20;;
23242;SDS011;11790;49.578;11.214;2023-04-24T10:46:25;1.65;;;1.40;;
23242;SDS011;11790;49.578;11.214;2023-04-24T11:02:23;1.48;;;0.90;;
23242;SDS011;11790;49.578;11.214;2023-04-24T11:12:53;2.35;;;0.90;;
23242;SDS011;11790;49.578;11.214;2023-04-24T11:17:54;1.10;;;1.00;;
23242;SDS011;11790;49.578;11.214;2023-04-24T11:22:55;1.52;;;1.00;;
23242;SDS011;11790;49.578;11.214;2023-04-24T11:28:04;1.70;;;1.00;;
23242;SDS011;11790;49.578;11.214;2023-04-24T11:33:05;2.00;;;1.40;;
23242;SDS011;11790;49.578;11.214;2023-04-24T11:38:05;1.73;;;1.30;;
23242;SDS011;11790;49.578;11.214;2023-04-24T11:43:06;3.20;;;1.50;;
23242;SDS011;11790;49.578;11.214;2023-04-24T11:48:06;2.60;;;1.90;;
23242;SDS011;11790;49.578;11.214;2023-04-24T11:53:06;2.38;;;1.77;;
23242;SDS011;11790;49.578;11.214;2023-04-24T11:58:07;2.40;;;1.40;;
23242;SDS011;11790;49.578;11.214;2023-04-24T12:03:08;2.28;;;1.60;;
23242;SDS011;11790;49.578;11.214;2023-04-24T12:08:08;2.78;;;1.70;;
23242;SDS011;11790;49.578;11.214;2023-04-24T12:13:08;2.53;;;1.70;;
23242;SDS011;11790;49.578;11.214;2023-04-24T12:18:11;3.57;;;1.80;;
23242;SDS011;11790;49.578;11.214;2023-04-24T12:23:12;2.33;;;1.83;;
23242;SDS011;11790;49.578;11.214;2023-04-24T12:28:12;2.88;;;1.83;;
23242;SDS011;11790;49.578;11.214;2023-04-24T12:33:13;5.50;;;2.30;;
23242;SDS011;11790;49.578;11.214;2023-04-24T12:38:21;2.78;;;2.10;;
23242;SDS011;11790;49.578;11.214;2023-04-24T12:43:21;3.33;;;2.65;;
23242;SDS011;11790;49.578;11.214;2023-04-24T12:48:22;2.83;;;1.92;;
23242;SDS011;11790;49.578;11.214;2023-04-24T12:53:22;2.35;;;1.85;;
23242;SDS011;11790;49.578;11.214;2023-04-24T12:58:23;3.22;;;2.03;;
23242;SDS011;11790;49.578;11.214;2023-04-24T13:03:23;2.97;;;1.92;;
23242;SDS011;11790;49.578;11.214;2023-04-24T13:08:23;3.95;;;2.00;;
23242;SDS011;11790;49.578;11.214;2023-04-24T13:13:24;3.90;;;1.80;;
23242;SDS011;11790;49.578;11.214;2023-04-24T13:18:24;8.82;;;1.80;;
23242;SDS011;11790;49.578;11.214;2023-04-24T13:23:24;3.97;;;1.58;;
23242;SDS011;11790;49.578;11.214;2023-04-24T13:28:25;3.45;;;1.70;;
23242;SDS011;11790;49.578;11.214;2023-04-24T13:33:25;1.93;;;1.63;;
23242;SDS011;11790;49.578;11.214;2023-04-24T13:38:25;2.42;;;1.70;;
23242;SDS011;11790;49.578;11.214;2023-04-24T13:43:25;1.80;;;1.60;;
23242;SDS011;11790;49.578;11.214;2023-04-24T13:48:25;4.00;;;1.60;;
23242;SDS011;11790;49.578;11.214;2023-04-24T13:53:26;2.88;;;1.75;;
23242;SDS011;11790;49.578;11.214;2023-04-24T13:58:26;3.88;;;1.70;;
23242;SDS011;11790;49.578;11.214;2023-04-24T14:03:26;3.28;;;2.10;;
23242;SDS011;11790;49.578;11.214;2023-04-24T14:08:27;1.70;;;1.58;;
23242;SDS011;11790;49.578;11.214;2023-04-24T14:13:27;3.45;;;1.88;;
23242;SDS011;11790;49.578;11.214;2023-04-24T14:18:27;1.58;;;1.00;;
23242;SDS011;11790;49.578;11.214;2023-04-24T14:23:27;3.15;;;1.38;;
23242;SDS011;11790;49.578;11.214;2023-04-24T14:28:28;1.98;;;1.50;;
23242;SDS011;11790;49.578;11.214;2023-04-24T14:33:28;2.47;;;1.77;;
23242;SDS011;11790;49.578;11.214;2023-04-24T14:38:28;2.88;;;2.08;;
23242;SDS011;11790;49.578;11.214;2023-04-24T14:43:29;2.92;;;2.42;;
23242;SDS011;11790;49.578;11.214;2023-04-24T14:48:29;2.30;;;2.10;;
23242;SDS011;11790;49.578;11.214;2023-04-24T14:53:30;4.28;;;2.28;;
23242;SDS011;11790;49.578;11.214;2023-04-24T14:58:30;3.43;;;2.47;;
23242;SDS011;11790;49.578;11.214;2023-04-24T15:03:30;4.10;;;2.33;;
23242;SDS011;11790;49.578;11.214;2023-04-24T15:08:30;4.15;;;2.05;;
23242;SDS011;11790;49.578;11.214;2023-04-24T15:13:31;8.05;;;2.20;;
23242;SDS011;11790;49.578;11.214;2023-04-24T15:18:31;5.63;;;2.05;;
23242;SDS011;11790;49.578;11.214;2023-04-24T15:23:31;2.92;;;2.28;;
23242;SDS011;11790;49.578;11.214;2023-04-24T15:28:31;4.60;;;2.60;;
23242;SDS011;11790;49.578;11.214;2023-04-24T15:33:31;3.47;;;2.40;;
23242;SDS011;11790;49.578;11.214;2023-04-24T15:38:32;4.00;;;2.80;;
23242;SDS011;11790;49.578;11.214;2023-04-24T15:43:32;3.23;;;2.60;;
23242;SDS011;11790;49.578;11.214;2023-04-24T15:48:34;4.53;;;2.78;;
23242;SDS011;11790;49.578;11.214;2023-04-24T15:53:34;5.18;;;3.08;;
23242;SDS011;11790;49.578;11.214;2023-04-24T15:58:34;3.55;;;2.70;;
23242;SDS011;11790;49.578;11.214;2023-04-24T16:03:34;8.68;;;3.00;;
23242;SDS011;11790;49.578;11.214;2023-04-24T16:08:35;3.97;;;2.60;;
23242;SDS011;11790;49.578;11.214;2023-04-24T16:13:35;4.60;;;2.85;;
23242;SDS011;11790;49.578;11.214;2023-04-24T16:18:35;4.28;;;3.10;;
23242;SDS011;11790;49.578;11.214;2023-04-24T16:23:35;7.05;;;3.70;;
23242;SDS011;11790;49.578;11.214;2023-04-24T16:28:36;5.32;;;3.50;;
23242;SDS011;11790;49.578;11.214;2023-04-24T16:33:36;5.25;;;2.80;;
23242;SDS011;11790;49.578;11.214;2023-04-24T16:38:37;6.60;;;3.20;;
23242;SDS011;11790;49.578;11.214;2023-04-24T16:43:37;6.03;;;3.47;;
23242;SDS011;11790;49.578;11.214;2023-04-24T16:48:37;4.07;;;2.85;;
23242;SDS011;11790;49.578;11.214;2023-04-24T16:53:37;4.80;;;3.22;;
23242;SDS011;11790;49.578;11.214;2023-04-24T16:58:38;5.68;;;3.20;;
23242;SDS011;11790;49.578;11.214;2023-04-24T17:03:38;4.38;;;3.10;;
23242;SDS011;11790;49.578;11.214;2023-04-24T17:08:38;3.92;;;3.15;;
23242;SDS011;11790;49.578;11.214;2023-04-24T17:13:38;6.65;;;2.80;;
23242;SDS011;11790;49.578;11.214;2023-04-24T17:18:39;5.70;;;2.60;;
23242;SDS011;11790;49.578;11.214;2023-04-24T17:23:39;4.30;;;2.83;;
23242;SDS011;11790;49.578;11.214;2023-04-24T17:28:39;4.45;;;2.95;;
23242;SDS011;11790;49.578;11.214;2023-04-24T17:33:40;4.97;;;3.10;;
23242;SDS011;11790;49.578;11.214;2023-04-24T17:38:40;4.40;;;3.07;;
23242;SDS011;11790;49.578;11.214;2023-04-24T17:43:40;5.10;;;3.42;;
23242;SDS011;11790;49.578;11.214;2023-04-24T17:48:40;5.25;;;3.47;;
23242;SDS011;11790;49.578;11.214;2023-04-24T17:53:41;5.53;;;3.40;;
23242;SDS011;11790;49.578;11.214;2023-04-24T17:58:41;5.73;;;2.80;;
23242;SDS011;11790;49.578;11.214;2023-04-24T18:03:41;5.25;;;3.38;;
23242;SDS011;11790;49.578;11.214;2023-04-24T18:08:43;8.90;;;3.53;;
23242;SDS011;11790;49.578;11.214;2023-04-24T18:13:43;6.50;;;3.23;;
23242;SDS011;11790;49.578;11.214;2023-04-24T18:18:45;9.55;;;4.65;;
23242;SDS011;11790;49.578;11.214;2023-04-24T18:23:45;7.38;;;3.80;;
23242;SDS011;11790;49.578;11.214;2023-04-24T18:28:45;5.65;;;3.97;;
23242;SDS011;11790;49.578;11.214;2023-04-24T18:33:46;7.82;;;4.47;;
23242;SDS011;11790;49.578;11.214;2023-04-24T18:38:46;8.38;;;4.38;;
23242;SDS011;11790;49.578;11.214;2023-04-24T18:43:47;5.72;;;4.22;;
23242;SDS011;11790;49.578;11.214;2023-04-24T18:48:47;6.65;;;4.47;;
23242;SDS011;11790;49.578;11.214;2023-04-24T18:53:48;5.25;;;4.00;;
23242;SDS011;11790;49.578;11.214;2023-04-24T18:58:48;6.15;;;3.92;;
23242;SDS011;11790;49.578;11.214;2023-04-24T19:03:49;6.07;;;3.92;;
23242;SDS011;11790;49.578;11.214;2023-04-24T19:08:49;5.93;;;4.00;;
23242;SDS011;11790;49.578;11.214;2023-04-24T19:13:49;8.27;;;4.70;;
23242;SDS011;11790;49.578;11.214;2023-04-24T19:18:49;6.93;;;4.57;;
23242;SDS011;11790;49.578;11.214;2023-04-24T19:23:50;8.50;;;4.80;;
23242;SDS011;11790;49.578;11.214;2023-04-24T19:28:51;7.05;;;4.65;;
23242;SDS011;11790;49.578;11.214;2023-04-24T19:33:52;5.38;;;4.00;;
23242;SDS011;11790;49.578;11.214;2023-04-24T19:38:52;5.88;;;4.40;;
23242;SDS011;11790;49.578;11.214;2023-04-24T19:43:52;11.60;;;4.38;;
23242;SDS011;11790;49.578;11.214;2023-04-24T19:48:53;8.88;;;4.93;;
23242;SDS011;11790;49.578;11.214;2023-04-24T19:53:53;6.18;;;4.88;;
23242;SDS011;11790;49.578;11.214;2023-04-24T19:58:53;8.40;;;4.47;;
23242;SDS011;11790;49.578;11.214;2023-04-24T20:03:53;6.38;;;4.45;;
23242;SDS011;11790;49.578;11.214;2023-04-24T20:08:54;7.80;;;5.18;;
23242;SDS011;11790;49.578;11.214;2023-04-24T20:13:54;8.25;;;5.22;;
23242;SDS011;11790;49.578;11.214;2023-04-24T20:18:55;10.52;;;6.22;;
23242;SDS011;11790;49.578;11.214;2023-04-24T20:23:55;8.55;;;5.15;;
23242;SDS011;11790;49.578;11.214;2023-04-24T20:28:55;6.72;;;5.03;;
23242;SDS011;11790;49.578;11.214;2023-04-24T20:33:56;7.68;;;5.50;;
23242;SDS011;11790;49.578;11.214;2023-04-24T20:38:56;7.97;;;5.75;;
23242;SDS011;11790;49.578;11.214;2023-04-24T20:43:57;12.35;;;6.15;;
23242;SDS011;11790;49.578;11.214;2023-04-24T20:48:57;11.57;;;7.05;;
23242;SDS011;11790;49.578;11.214;2023-04-24T20:53:57;12.10;;;6.53;;
23242;SDS011;11790;49.578;11.214;2023-04-24T20:58:59;11.43;;;7.28;;
23242;SDS011;11790;49.578;11.214;2023-04-24T21:04:00;12.45;;;7.43;;
23242;SDS011;11790;49.578;11.214;2023-04-24T21:09:00;13.43;;;8.40;;
23242;SDS011;11790;49.578;11.214;2023-04-24T21:14:00;19.77;;;10.38;;
23242;SDS011;11790;49.578;11.214;2023-04-24T21:19:01;19.20;;;10.23;;
23242;SDS011;11790;49.578;11.214;2023-04-24T21:24:01;16.15;;;9.07;;
23242;SDS011;11790;49.578;11.214;2023-04-24T21:29:03;12.93;;;8.02;;
23242;SDS011;11790;49.578;11.214;2023-04-24T21:34:03;12.02;;;6.75;;
23242;SDS011;11790;49.578;11.214;2023-04-24T21:39:03;16.73;;;7.63;;
23242;SDS011;11790;49.578;11.214;2023-04-24T21:44:03;15.77;;;7.57;;
23242;SDS011;11790;49.578;11.214;2023-04-24T21:49:04;17.80;;;7.75;;
23242;SDS011;11790;49.578;11.214;2023-04-24T21:54:05;16.95;;;7.63;;
23242;SDS011;11790;49.578;11.214;2023-04-24T21:59:05;13.18;;;7.50;;
23242;SDS011;11790;49.578;11.214;2023-04-24T22:04:05;14.15;;;7.90;;
23242;SDS011;11790;49.578;11.214;2023-04-24T22:09:06;16.35;;;8.07;;
23242;SDS011;11790;49.578;11.214;2023-04-24T22:14:06;14.85;;;7.28;;
23242;SDS011;11790;49.578;11.214;2023-04-24T22:19:06;11.30;;;6.68;;
23242;SDS011;11790;49.578;11.214;2023-04-24T22:24:07;13.57;;;6.75;;
23242;SDS011;11790;49.578;11.214;2023-04-24T22:29:08;11.82;;;6.97;;
23242;SDS011;11790;49.578;11.214;2023-04-24T22:34:08;12.25;;;6.38;;
23242;SDS011;11790;49.578;11.214;2023-04-24T22:39:08;10.13;;;6.53;;
23242;SDS011;11790;49.578;11.214;2023-04-24T22:44:09;13.18;;;8.15;;
23242;SDS011;11790;49.578;11.214;2023-04-24T22:49:10;20.05;;;9.93;;
23242;SDS011;11790;49.578;11.214;2023-04-24T22:54:10;25.30;;;11.15;;
23242;SDS011;11790;49.578;11.214;2023-04-24T22:59:10;15.88;;;8.50;;
23242;SDS011;11790;49.578;11.214;2023-04-24T23:04:10;10.75;;;6.90;;
23242;SDS011;11790;49.578;11.214;2023-04-24T23:09:10;12.50;;;7.90;;
23242;SDS011;11790;49.578;11.214;2023-04-24T23:14:11;10.93;;;7.00;;
23242;SDS011;11790;49.578;11.214;2023-04-24T23:19:11;9.93;;;6.20;;
23242;SDS011;11790;49.578;11.214;2023-04-24T23:24:11;12.07;;;6.53;;
23242;SDS011;11790;49.578;11.214;2023-04-24T23:29:12;11.65;;;6.70;;
23242;SDS011;11790;49.578;11.214;2023-04-24T23:34:12;9.85;;;6.28;;
23242;SDS011;11790;49.578;11.214;2023-04-24T23:39:12;8.77;;;6.30;;
23242;SDS011;11790;49.578;11.214;2023-04-24T23:44:12;10.48;;;6.63;;
23242;SDS011;11790;49.578;11.214;2023-04-24T23:49:12;8.48;;;5.60;;
23242;SDS011;11790;49.578;11.214;2023-04-24T23:54:13;8.65;;;6.03;;
23242;SDS011;11790;49.578;11.214;2023-04-24T23:59:13;8.13;;;5.18;;
